Date,TemperatureHighF,TemperatureAvgF,TemperatureLowF,DewpointHighF,DewpointAvgF,DewpointLowF,HumidityHigh,HumidityAvg,HumidityLow,PressureMaxIn,PressureMinIn,WindSpeedMaxMPH,WindSpeedAvgMPH,GustSpeedMaxMPH,PrecipitationSumIn
2013-1-1,10.4,3.4,-0.6,-2.0,-5.9,-8.0,77,65,50,30.42,30.09,25,8,0,0.00
2013-1-2,14.4,4.3,-4.3,-3.0,-7.2,-12.0,73,60,40,30.49,30.34,26,4,0,0.00
2013-1-3,26.3,10.2,-4.1,-5.0,-9.4,-13.0,72,45,20,30.59,30.45,7,2,0,0.00
2013-1-4,33.1,23.1,14.3,7.0,0.5,-12.0,49,38,22,30.43,29.99,18,2,0,0.00
2013-1-5,31.3,23.9,17.2,1.0,-7.0,-21.0,33,26,15,30.24,29.98,23,9,0,0.01
2013-1-6,40.7,26.3,16.1,3.0,-10.4,-26.0,33,20,12,30.26,29.93,7,1,0,0.00
2013-1-7,37.5,25.8,16.7,-2.0,-7.2,-13.0,32,24,15,29.94,29.78,11,2,0,0.00
2013-1-8,32.1,24.6,19.7,11.0,4.8,-9.0,59,44,24,30.25,29.75,27,5,0,0.00
2013-1-9,39.2,28.6,19.4,10.0,4.4,-2.0,53,36,25,30.30,29.99,14,2,0,0.00
2013-1-10,36.8,26.6,17.8,11.0,-0.4,-10.0,68,34,17,29.97,29.39,17,2,0,0.00
2013-1-11,17.8,6.8,-5.2,11.0,-0.5,-14.0,85,72,61,29.84,29.10,28,4,0,0.00
2013-1-12,5.5,-4.3,-10.4,-10.0,-15.2,-18.0,76,60,39,30.18,29.85,15,3,0,0.00
2013-1-13,3.0,-5.4,-13.0,-10.0,-16.9,-21.0,76,59,36,30.32,30.19,10,1,0,0.00
2013-1-14,7.1,-4.4,-12.7,-10.0,-15.9,-21.0,76,59,38,30.38,30.26,14,3,0,0.00
2013-1-15,21.0,8.7,-7.6,7.0,-4.9,-23.0,71,55,34,30.47,30.31,26,8,0,0.00
2013-1-16,37.9,24.8,13.6,15.0,11.5,5.0,76,58,39,30.44,30.20,17,3,0,0.00
2013-1-17,39.4,25.4,14.7,10.0,4.7,-5.0,75,44,24,30.39,30.22,10,2,0,0.00
2013-1-18,33.5,25.0,19.5,3.0,-2.0,-5.0,38,31,24,30.22,30.05,34,12,0,0.00
2013-1-19,39.8,27.5,21.3,3.0,-3.3,-12.0,38,27,14,30.28,30.11,19,4,0,0.00
2013-1-20,36.6,26.8,20.2,4.0,-3.6,-14.0,46,28,15,30.12,29.98,27,8,0,0.00
2013-1-21,34.2,26.0,20.4,7.0,0.8,-13.0,47,35,18,30.17,30.03,20,4,0,0.00
2013-1-22,42.3,31.2,24.3,-3.0,-10.0,-16.0,21,16,12,30.17,30.07,25,9,0,0.00
2013-1-23,47.8,35.8,29.8,2.0,-8.9,-21.0,22,15,9,30.16,29.99,23,4,0,0.00
2013-1-24,36.9,32.5,27.4,21.0,10.1,-9.0,73,45,16,29.99,29.73,33,15,0,0.00
2013-1-25,40.3,30.8,23.6,24.0,20.9,17.0,80,67,51,30.05,29.91,22,4,0,0.00
2013-1-26,35.0,28.3,22.8,25.0,18.9,10.0,90,69,42,29.91,29.59,16,2,0,0.00
2013-1-27,35.6,27.6,20.7,24.0,16.1,7.0,90,64,43,29.68,29.56,20,5,0,0.12
2013-1-28,28.5,20.6,11.2,21.0,11.3,1.0,86,68,53,29.62,29.43,21,4,0,0.00
2013-1-29,11.5,4.2,-1.9,4.0,-6.8,-12.0,76,61,40,30.07,29.50,21,6,0,0.00
2013-1-30,12.5,6.2,-1.9,8.0,0.4,-11.0,84,77,64,30.27,30.02,38,13,0,0.00
2013-1-31,20.3,15.6,12.5,14.0,9.8,8.0,84,78,69,30.35,30.20,34,14,0,0.00
2013-2-1,22.1,17.6,14.5,12.0,10.2,8.0,80,73,64,30.27,30.15,34,15,0,0.00
2013-2-2,33.7,24.1,16.2,8.0,1.6,-5.0,69,39,25,30.40,30.25,32,12,0,0.00
2013-2-3,36.2,27.1,18.8,3.0,-4.7,-15.0,44,26,15,30.25,29.83,26,9,0,0.00
2013-2-4,34.4,24.1,17.3,9.0,0.4,-7.0,60,37,22,29.97,29.85,23,5,0,0.00
2013-2-5,42.0,29.1,19.7,17.0,12.4,3.0,64,51,33,30.04,29.80,19,5,0,0.00
2013-2-6,35.2,26.0,15.4,17.0,12.6,9.0,82,59,36,29.87,29.67,13,2,0,0.00
2013-2-7,34.4,21.2,12.1,9.0,-6.4,-16.0,76,33,12,30.12,29.86,18,2,0,0.02
2013-2-8,33.7,20.9,10.4,17.0,7.2,-6.0,86,57,35,30.08,29.67,13,2,0,0.00
2013-2-9,24.2,15.8,6.2,17.0,9.3,-1.0,87,76,58,29.67,29.36,23,4,0,0.01
2013-2-10,7.1,5.7,5.1,-1.0,-2.9,-4.0,71,67,64,29.75,29.50,35,17,0,0.00
2013-2-24,14.0,7.3,1.4,8.0,1.9,-4.0,83,78,72,30.13,29.64,7,1,0,0.00
2013-2-25,31.1,15.1,0.6,8.0,-1.1,-5.0,81,51,27,30.21,29.90,28,5,0,0.02
2013-2-26,19.2,11.0,3.3,4.0,0.1,-6.0,71,62,48,30.16,29.68,18,6,0,0.00
2013-2-27,19.7,8.2,0.9,0.0,-4.6,-9.0,68,57,35,30.43,30.18,22,9,0,0.00
2013-2-28,20.2,9.4,3.5,2.0,-5.3,-10.0,64,52,40,30.46,30.38,25,12,0,0.00
2013-3-1,28.4,23.3,20.0,15.0,13.1,11.0,76,65,57,30.43,30.27,28,15,0,0.01
2013-3-2,39.3,29.0,19.3,19.0,13.7,9.0,76,55,41,30.41,30.04,24,7,0,0.01
2013-3-3,36.6,30.0,24.0,20.0,14.0,5.0,84,53,33,30.03,29.55,42,13,0,0.00
2013-3-4,30.6,19.0,5.8,20.0,11.1,-9.0,85,72,47,30.07,29.55,22,6,0,0.01
2013-3-5,39.0,24.6,8.7,-2.0,-9.6,-16.0,43,23,15,30.32,30.06,27,10,0,0.01
2013-3-6,44.0,31.9,21.7,9.0,3.1,-7.0,40,30,21,30.10,29.73,21,6,0,0.00
2013-3-7,44.9,33.6,25.8,7.0,3.6,-1.0,41,29,18,29.79,29.69,33,6,0,0.00
2013-3-8,36.0,28.2,23.3,22.0,13.8,5.0,88,57,41,29.78,29.45,13,2,0,0.00
2013-3-9,26.1,19.2,5.8,21.0,14.2,0.0,88,81,73,29.92,29.36,16,1,0,0.02
2013-3-10,30.1,16.3,4.3,11.0,4.9,-3.0,79,62,44,30.25,29.92,15,5,0,0.14
2013-3-11,30.5,22.6,17.1,16.0,10.5,3.0,84,61,49,30.17,29.96,28,13,0,0.00
2013-3-12,34.4,25.3,19.3,17.0,14.6,13.0,84,65,47,30.17,29.98,30,15,0,0.00
2013-3-13,44.7,31.2,24.0,18.0,14.4,11.0,70,51,31,30.25,30.11,31,6,0,0.01
2013-3-14,49.3,35.9,25.9,16.0,12.6,9.0,63,41,20,30.24,30.07,11,4,0,0.00
2013-3-15,47.4,38.7,31.8,19.0,15.6,12.0,52,40,29,30.07,29.68,32,10,0,0.00
2013-3-16,36.5,30.1,23.6,25.0,20.0,15.0,92,67,45,29.70,29.56,19,5,0,0.01
2013-3-17,31.7,22.4,15.3,20.0,13.7,6.0,84,70,50,29.71,29.50,25,7,0,0.03
2013-3-18,21.6,16.2,11.2,12.0,8.0,3.0,81,70,59,30.05,29.72,20,6,0,0.00
2013-3-19,31.4,21.7,11.5,10.0,-2.0,-12.0,75,39,18,30.25,30.04,28,9,0,0.01
2013-3-20,38.2,26.0,13.1,20.0,5.0,-18.0,72,44,20,30.24,29.74,29,13,0,0.00
2013-3-21,31.2,23.1,15.2,21.0,15.0,7.0,86,72,56,29.74,29.45,26,11,0,0.03
2013-3-22,29.0,19.1,11.9,12.0,2.0,-5.0,79,50,28,29.71,29.61,26,7,0,0.00
2013-3-23,13.5,6.0,-0.2,10.0,1.1,-5.0,84,80,73,30.22,29.61,5,1,0,0.00
2013-3-24,0.0,-1.6,-2.6,-5.0,-7.1,-8.0,80,78,76,30.24,30.21,3,1,0,0.00
2013-5-9,35.3,29.3,23.5,29.0,22.9,-99.9,88,82,75,30.14,0.00,8,-21,0,0.27
2013-5-10,41.9,31.5,22.0,30.0,25.0,18.0,89,78,56,30.26,30.12,10,1,0,0.19
2013-5-11,49.4,36.6,25.1,27.0,22.8,18.0,86,60,32,30.29,30.13,11,2,0,0.01
2013-5-12,54.5,42.9,31.1,28.0,25.3,22.0,85,53,33,30.15,30.00,17,6,0,0.01
2013-5-13,61.1,48.3,40.6,35.0,28.2,24.0,76,47,29,30.02,29.84,19,6,0,0.00
2013-5-14,61.0,47.0,38.4,36.0,29.6,26.0,86,53,29,29.84,29.70,12,3,0,0.05
2013-5-15,54.5,42.0,35.5,39.0,31.7,25.0,87,68,41,29.74,29.68,9,1,0,0.11
2013-5-16,57.0,45.5,33.4,31.0,25.9,21.0,86,50,28,29.75,29.64,15,4,0,0.00
2013-5-17,61.0,48.2,38.2,23.0,17.6,12.0,50,31,17,29.66,29.53,14,4,0,0.00
2013-5-18,49.5,39.6,31.2,29.0,20.9,13.0,86,50,33,29.60,29.54,16,4,0,0.00
2013-5-19,40.1,33.1,29.1,26.0,22.3,18.0,77,65,50,29.76,29.57,26,8,0,0.01
2013-5-20,43.3,33.9,28.0,29.0,23.4,20.0,81,66,49,29.86,29.71,24,8,0,0.01
2013-5-21,48.0,37.1,28.0,25.0,22.1,20.0,77,56,36,29.86,29.78,22,7,0,0.00
2013-5-22,59.3,43.6,32.2,31.0,23.6,19.0,82,48,24,29.78,29.62,11,2,0,0.00
2013-5-23,60.5,44.5,33.6,35.0,29.4,18.0,91,62,20,29.74,29.66,23,3,0,0.00
2013-5-24,62.4,46.7,30.7,33.0,21.0,13.0,91,43,16,29.77,29.68,14,3,0,0.00
2013-5-25,64.3,49.9,37.8,20.0,14.8,10.0,40,26,13,29.75,29.63,12,3,0,0.00
2013-5-26,64.3,50.4,39.2,23.0,17.1,12.0,43,28,15,29.66,29.53,14,3,0,0.00
2013-5-27,58.3,47.9,38.7,20.0,15.7,9.0,44,28,18,29.59,29.45,17,5,0,0.00
2013-5-28,57.1,45.4,34.4,24.0,18.5,13.0,48,36,20,29.52,29.35,19,5,0,0.00
2013-5-29,45.8,36.7,29.6,30.0,23.5,19.0,86,60,43,29.52,29.27,18,4,0,0.01
2013-5-30,43.7,34.9,28.8,26.0,21.5,17.0,83,60,35,29.77,29.49,24,8,0,0.08
2013-5-31,44.0,36.1,26.9,24.0,16.3,11.0,86,47,29,29.93,29.74,23,10,0,0.05
2013-6-1,56.3,40.9,28.6,25.0,20.8,13.0,69,47,28,30.01,29.90,18,6,0,0.00
2013-6-2,64.9,47.6,29.6,28.0,20.6,15.0,82,41,17,29.95,29.65,15,3,0,0.00
2013-6-3,62.3,52.4,42.9,28.0,22.2,16.0,49,32,21,29.64,29.48,20,6,0,0.00
2013-6-4,60.5,49.7,40.9,34.0,25.7,17.0,69,41,28,29.68,29.55,32,6,0,0.00
2013-6-5,60.4,46.3,34.4,38.0,28.0,18.0,92,55,22,29.77,29.63,20,4,0,0.00
2013-6-6,62.0,48.8,36.2,37.0,25.7,19.0,88,43,25,29.79,29.68,12,3,0,0.06
2013-6-7,59.8,46.0,34.7,40.0,32.6,28.0,90,64,35,29.77,29.64,20,3,0,0.02
2013-6-8,60.1,51.6,43.7,32.0,29.2,27.0,58,43,28,29.65,29.51,29,7,0,0.00
2013-6-9,71.3,55.5,43.3,31.0,27.1,23.0,50,35,20,29.74,29.64,19,4,0,0.00
2013-6-10,73.1,60.6,48.8,31.0,26.8,23.0,42,29,18,29.68,29.50,17,3,0,0.00
2013-6-11,69.1,58.8,49.1,26.0,21.0,18.0,35,24,15,29.58,29.45,26,8,0,0.00
2013-6-12,71.9,58.9,45.4,29.0,23.2,19.0,37,26,16,29.72,29.56,24,5,0,0.00
2013-6-13,69.3,59.8,44.5,38.0,30.3,25.0,77,36,21,29.64,29.55,18,6,0,0.00
2013-6-14,69.7,56.2,42.0,33.0,25.8,15.0,64,34,15,29.61,29.51,15,3,0,0.00
2013-6-15,65.9,53.0,40.5,33.0,22.2,10.0,72,32,18,29.73,29.56,17,2,0,0.00
2013-6-16,59.0,48.2,38.7,39.0,30.1,25.0,81,51,34,29.85,29.66,20,3,0,0.05
2013-6-17,64.2,48.5,39.3,37.0,30.5,25.0,75,53,25,29.90,29.78,19,2,0,0.02
2013-6-18,66.8,50.4,37.4,39.0,30.2,22.0,86,51,21,29.85,29.62,20,2,0,0.00
2013-6-19,69.6,53.7,36.9,36.0,21.6,12.0,80,35,12,29.65,29.48,15,3,0,0.00
2013-6-20,69.3,55.8,44.5,23.0,16.8,9.0,30,22,14,29.55,29.45,20,3,0,0.00
2013-6-21,68.7,56.9,46.0,22.0,18.0,14.0,30,22,14,29.56,29.47,16,3,0,0.00
2013-6-22,67.3,54.9,45.0,25.0,18.7,14.0,33,25,17,29.55,29.43,15,3,0,0.00
2013-6-23,65.5,52.1,41.3,30.0,21.6,14.0,52,31,19,29.59,29.51,14,2,0,0.00
2013-6-24,66.7,53.7,39.7,37.0,24.1,17.0,80,37,17,29.58,29.52,20,4,0,0.00
2013-6-25,67.6,55.1,45.2,31.0,25.3,18.0,45,32,25,29.72,29.49,28,5,0,0.00
2013-6-26,77.2,60.0,44.3,35.0,30.3,26.0,50,34,20,29.79,29.68,12,2,0,0.00
2013-6-27,78.7,63.5,52.5,35.0,30.5,27.0,46,30,18,29.79,29.69,14,2,0,0.00
2013-6-28,77.3,61.4,46.5,37.0,33.8,28.0,65,39,18,29.79,29.69,12,1,0,0.00
2013-6-29,72.5,54.1,44.2,44.0,38.2,33.0,78,58,26,29.81,29.68,15,2,0,0.05
2013-6-30,68.2,53.1,40.9,46.0,37.6,33.0,89,59,30,29.84,29.72,15,2,0,0.12
2013-7-1,68.8,50.9,38.2,46.0,37.2,28.0,91,64,22,29.90,29.81,7,1,0,0.11
2013-7-2,68.7,51.3,39.7,44.0,35.7,27.0,91,62,22,29.89,29.77,13,1,0,0.21
2013-7-3,68.6,52.3,40.1,39.0,34.8,29.0,91,55,26,29.80,29.65,15,2,0,0.02
2013-7-4,69.2,55.6,44.4,44.0,36.6,32.0,88,52,28,29.68,29.56,14,2,0,0.11
2013-7-5,65.6,54.6,43.1,50.0,42.1,38.0,88,65,40,29.62,29.51,18,3,0,0.05
2013-7-6,67.2,53.3,46.3,47.0,41.7,38.0,86,68,35,29.68,29.57,16,4,0,0.08
2013-7-7,68.8,54.4,45.4,48.0,41.9,38.0,90,66,36,29.75,29.64,12,1,0,0.05
2013-7-8,69.7,53.7,41.7,43.0,38.3,31.0,92,62,29,29.85,29.74,16,2,0,0.02
2013-7-9,71.7,58.6,48.8,40.0,35.7,32.0,61,44,26,29.84,29.76,11,1,0,0.00
2013-7-10,67.7,57.4,47.8,44.0,40.1,34.0,74,54,37,29.82,29.67,9,1,0,0.00
2013-7-11,73.1,58.3,45.4,47.0,40.1,34.0,84,55,26,29.74,29.55,10,1,0,0.00
2013-7-12,69.2,57.0,50.2,48.0,41.6,38.0,85,58,35,29.64,29.49,19,2,0,0.06
2013-7-13,69.1,56.0,48.4,51.0,43.7,39.0,83,65,36,29.75,29.64,10,1,0,0.07
2013-7-14,65.0,52.2,45.6,50.0,44.4,40.0,92,76,49,29.83,29.72,13,1,0,0.16
2013-7-15,60.4,49.3,44.1,50.0,45.6,42.0,93,88,63,29.82,29.73,10,0,0,0.20
2013-7-16,62.9,50.8,37.5,49.0,41.5,36.0,94,73,45,29.91,29.78,11,1,0,0.00
2013-7-17,67.0,52.2,40.3,50.0,42.6,38.0,93,72,47,29.91,29.80,5,0,0,0.06
2013-7-18,69.2,54.5,47.4,50.0,42.5,39.0,85,65,41,29.88,29.70,17,1,0,0.10
2013-7-19,62.3,53.2,46.2,49.0,43.1,39.0,90,70,49,29.81,29.72,7,0,0,0.04
2013-7-20,72.4,58.3,44.7,44.0,36.2,26.0,90,50,18,29.76,29.57,16,2,0,0.00
2013-7-21,73.2,58.6,43.2,44.0,32.1,24.0,91,43,16,29.61,29.51,21,2,0,0.00
2013-7-22,75.0,61.4,49.6,35.0,27.5,18.0,56,30,16,29.64,29.57,19,2,0,0.00
2013-7-23,75.9,61.7,48.1,39.0,24.0,16.0,52,25,14,29.69,29.60,11,1,0,0.00
2013-7-24,67.4,53.7,44.3,45.0,40.1,34.0,88,62,29,29.74,29.61,26,1,0,0.00
2013-7-25,65.1,50.0,41.4,47.0,41.5,38.0,91,75,38,29.94,29.71,14,2,0,0.27
2013-7-26,67.9,52.8,41.1,45.0,39.5,32.0,91,64,27,29.95,29.88,6,0,0,0.00
2013-7-27,65.8,52.5,43.1,46.0,40.6,35.0,91,68,36,29.88,29.62,14,1,0,0.17
2013-7-28,57.9,48.7,44.3,46.0,42.8,39.0,93,81,53,29.69,29.56,10,2,0,0.12
2013-7-29,63.2,51.8,44.2,42.0,38.8,36.0,79,62,43,29.83,29.66,15,3,0,0.00
2013-7-30,66.9,53.4,42.9,39.0,35.7,32.0,73,53,31,29.94,29.83,22,3,0,0.00
2013-7-31,70.5,56.3,44.4,40.0,35.4,32.0,67,48,27,29.97,29.82,14,1,0,0.00
2013-8-1,65.6,52.3,43.9,45.0,39.8,37.0,86,64,36,29.82,29.68,25,4,0,0.01
2013-8-2,69.6,57.3,49.6,42.0,38.3,34.0,68,52,28,29.72,29.64,18,4,0,0.00
2013-8-3,66.7,54.3,45.0,43.0,38.9,35.0,87,59,31,29.85,29.68,16,2,0,0.00
2013-8-4,69.4,53.5,43.7,45.0,39.9,36.0,88,63,31,29.84,29.76,17,2,0,0.04
2013-8-5,64.3,50.2,43.6,49.0,41.0,36.0,92,73,38,29.82,29.73,13,2,0,0.25
2013-8-6,67.2,50.9,43.3,43.0,37.9,33.0,88,64,29,29.80,29.71,13,1,0,0.01
2013-8-7,51.9,45.6,40.7,43.0,38.0,32.0,91,75,60,29.84,29.73,4,0,0,0.46
2013-8-8,59.0,48.0,39.3,39.0,34.3,29.0,87,61,35,29.87,29.77,7,1,0,0.02
2013-8-9,55.2,45.1,37.5,40.0,36.4,32.0,90,73,45,30.01,29.86,9,1,0,0.01
2013-8-10,66.5,51.4,38.7,36.0,30.8,25.0,88,50,21,30.01,29.85,16,2,0,0.00
2013-8-11,61.5,49.1,41.1,44.0,36.4,32.0,87,63,38,29.88,29.79,7,0,0,0.02
2013-8-12,61.4,49.4,39.3,41.0,36.2,32.0,88,63,34,29.90,29.83,11,1,0,0.03
2013-8-13,64.1,49.2,37.4,38.0,34.5,30.0,89,61,30,29.93,29.85,18,3,0,0.00
2013-8-14,62.6,50.4,39.7,36.0,30.3,26.0,83,49,27,29.91,29.86,23,3,0,0.00
2013-8-15,67.8,54.2,42.4,31.0,27.3,25.0,53,37,21,29.89,29.80,14,2,0,0.00
2013-8-16,71.1,56.9,43.8,34.0,27.3,22.0,55,34,19,29.86,29.79,12,1,0,0.00
2013-8-17,70.5,58.8,46.2,32.0,28.2,25.0,50,33,20,29.82,29.68,9,1,0,0.00
2013-8-18,69.3,53.2,46.4,44.0,36.1,29.0,88,55,29,29.84,29.70,16,2,0,0.07
2013-8-19,70.5,55.9,45.9,49.0,38.0,31.0,91,54,23,29.85,29.74,11,2,0,0.26
2013-8-20,69.9,57.6,47.7,39.0,35.6,30.0,62,46,25,29.78,29.66,10,1,0,0.00
2013-8-21,70.0,55.7,48.3,48.0,39.0,35.0,76,55,30,29.78,29.67,10,1,0,0.02
2013-8-22,62.2,54.0,47.0,51.0,42.5,35.0,90,66,47,29.81,29.71,8,0,0,0.16
2013-8-23,66.4,54.3,42.2,47.0,40.6,36.0,92,63,35,29.80,29.64,26,1,0,0.02
2013-8-24,63.4,52.2,45.7,47.0,39.7,36.0,87,65,40,29.80,29.65,17,0,0,0.15
2013-8-25,61.6,51.8,43.7,48.0,43.7,39.0,87,75,52,29.87,29.80,9,0,0,0.10
2013-8-26,66.0,54.4,47.0,48.0,44.0,41.0,92,71,46,29.86,29.75,7,1,0,0.46
2013-8-27,67.4,55.4,45.2,48.0,42.8,39.0,90,65,37,29.82,29.74,14,1,0,0.01
2013-8-28,71.1,55.7,46.1,45.0,40.3,29.0,89,61,21,29.81,29.68,12,1,0,0.65
2013-8-29,67.5,54.2,45.8,48.0,42.6,38.0,86,67,40,29.92,29.78,6,1,0,0.05
2013-8-30,64.9,55.0,47.4,47.0,42.3,38.0,85,63,44,29.90,29.76,18,2,0,0.07
2013-8-31,65.5,52.8,46.6,49.0,43.6,39.0,88,72,42,29.80,29.73,7,1,0,0.28
2013-9-1,60.6,50.9,44.9,48.0,44.4,41.0,92,79,48,29.85,29.76,9,0,0,0.12
2013-9-2,67.2,53.8,45.0,49.0,43.7,40.0,91,72,38,29.86,29.76,10,1,0,0.20
2013-9-3,68.0,54.5,45.7,49.0,43.6,38.0,91,69,34,29.86,29.75,11,1,0,0.52
2013-9-4,66.7,52.4,46.0,53.0,45.1,41.0,91,77,44,29.97,29.82,7,1,0,0.32
2013-9-5,69.5,57.8,48.0,48.0,40.4,34.0,77,55,30,29.93,29.81,9,1,0,0.00
2013-9-6,70.6,57.8,48.4,43.0,38.4,33.0,67,51,25,29.82,29.67,11,1,0,0.01
2013-9-7,68.1,57.3,46.7,41.0,37.7,33.0,72,50,30,29.76,29.66,12,1,0,0.00
2013-9-8,66.1,55.5,46.7,44.0,37.9,33.0,73,53,30,29.68,29.52,11,0,0,0.01
2013-9-9,62.1,52.5,44.2,44.0,40.1,36.0,91,65,41,29.59,29.49,12,1,0,0.11
2013-9-10,46.1,46.1,46.1,44.0,44.0,44.0,91,91,91,29.59,29.58,1,0,0,0.20
2013-10-3,55.7,46.2,40.0,22.0,16.9,-99.9,49,34,23,29.37,29.32,16,-21,0,0.00
2013-10-4,40.1,25.1,15.7,26.0,13.0,7.0,82,61,43,30.02,29.26,29,9,0,0.00
2013-10-5,36.4,24.8,15.7,9.0,3.2,-9.0,70,44,17,30.37,30.01,33,14,0,0.00
2013-10-6,54.3,41.2,30.6,24.0,14.2,-9.0,49,34,16,30.33,30.04,22,4,0,0.00
2013-10-7,63.7,48.4,36.2,19.0,11.2,2.0,37,23,14,30.04,29.70,6,1,0,0.00
2013-10-8,56.6,46.1,37.0,22.0,16.7,9.0,54,33,19,29.68,29.45,15,2,0,0.00
2013-10-9,49.8,39.9,30.8,25.0,20.9,15.0,70,48,30,29.69,29.53,17,2,0,0.00
2013-10-10,37.8,32.4,25.6,30.0,23.9,14.0,85,71,54,29.67,29.32,32,6,0,0.01
2013-10-11,36.8,30.0,25.7,23.0,20.0,17.0,79,67,52,29.96,29.39,44,13,0,0.00
2013-10-12,45.9,32.0,20.3,22.0,15.3,7.0,83,54,25,30.05,29.95,14,1,0,0.00
2013-10-13,48.7,36.4,25.5,30.0,23.4,16.0,85,62,33,30.01,29.72,12,1,0,0.00
2013-10-14,36.2,29.7,24.8,28.0,20.0,14.0,87,68,42,29.98,29.55,32,8,0,0.04
2013-10-15,28.8,24.1,20.9,23.0,18.4,15.0,89,79,65,30.08,29.96,5,0,0,0.00
2013-10-16,33.5,24.7,17.8,20.0,14.9,5.0,89,69,43,30.07,30.01,24,6,0,0.02
2013-10-17,37.6,28.7,22.4,17.0,8.6,1.0,73,44,25,30.05,29.84,25,6,0,0.00
2013-10-18,27.6,22.4,17.6,18.0,10.4,4.0,84,61,46,30.17,29.81,21,6,0,0.00
2013-10-19,42.7,29.5,20.5,19.0,12.8,5.0,66,51,37,30.18,29.91,26,5,0,0.01
2013-10-20,40.2,30.9,23.8,22.0,15.8,12.0,84,55,39,29.91,29.73,28,10,0,0.00
2013-10-21,39.2,28.4,19.9,18.0,14.1,8.0,83,57,36,30.17,29.89,25,6,0,0.01
2013-10-22,43.7,32.3,28.9,20.0,16.8,15.0,61,54,39,30.16,30.12,19,5,0,0.00